Time;durP1;ratioP1;P1;durP2;ratioP2;P2;SDS_P1;SDS_P2;PMS_P1;PMS_P2;Temp;Humidity;BMP_temperature;BMP_pressure;BME280_temperature;BME280_humidity;BME280_pressure;Samples;Min_cycle;Max_cycle;Signal;HPM_P1;HPM_P2
2022/10/03 00:00:13;;;;;;;17.52;10.30;;;9.60;99.90;;;;;;6248371;23;20106;-79
2022/10/03 00:03:37;;;;;;;17.02;9.75;;;9.40;99.90;;;;;;6246995;23;20554;-79
2022/10/03 00:06:55;;;;;;;19.00;9.82;;;9.30;99.90;;;;;;6245956;23;20024;-81
2022/10/03 00:09:42;;;;;;;20.20;10.35;;;9.20;99.90;;;;;;6248040;22;20031;-79
2022/10/03 00:12:48;;;;;;;15.48;9.30;;;9.10;99.90;;;;;;6246846;23;20042;-79
2022/10/03 00:15:52;;;;;;;18.13;9.85;;;9.10;99.90;;;;;;6266347;22;20060;-80
2022/10/03 00:18:51;;;;;;;17.27;10.55;;;9.00;99.90;;;;;;6247190;23;20035;-80
2022/10/03 00:22:03;;;;;;;20.25;10.38;;;9.10;99.90;;;;;;6244288;23;20028;-80
2022/10/03 00:25:17;;;;;;;23.88;11.73;;;9.10;99.90;;;;;;6167415;23;20083;-80
2022/10/03 00:28:28;;;;;;;20.08;11.55;;;9.00;99.90;;;;;;6246835;23;20024;-78
2022/10/03 00:31:32;;;;;;;17.73;10.68;;;9.00;99.90;;;;;;6244860;23;20050;-81
2022/10/03 00:34:53;;;;;;;21.80;10.63;;;9.00;99.90;;;;;;6245606;23;20032;-79
2022/10/03 00:37:45;;;;;;;22.75;11.77;;;8.90;99.90;;;;;;6245003;23;20032;-78
2022/10/03 00:40:44;;;;;;;22.27;10.70;;;8.80;99.90;;;;;;6244548;23;20123;-78
2022/10/03 00:44:02;;;;;;;26.17;11.15;;;8.90;99.90;;;;;;6245059;23;20020;-80
2022/10/03 00:47:11;;;;;;;17.23;9.73;;;8.80;99.90;;;;;;6245246;23;20020;-79
2022/10/03 00:50:17;;;;;;;21.67;12.10;;;8.80;99.90;;;;;;6247723;23;20034;-81
2022/10/03 00:53:09;;;;;;;21.77;10.82;;;8.70;99.90;;;;;;6245290;23;20427;-80
2022/10/03 00:56:05;;;;;;;;;;;8.60;99.90;;;;;;6243856;23;20024;-78
2022/10/03 00:59:02;;;;;;;23.88;12.32;;;8.50;99.90;;;;;;6243335;23;20054;-77
2022/10/03 01:01:49;;;;;;;28.77;15.07;;;8.60;99.90;;;;;;6249484;22;20299;-80
2022/10/03 01:04:48;;;;;;;28.98;15.05;;;8.60;99.90;;;;;;6247202;22;20035;-80
2022/10/03 01:07:57;;;;;;;38.22;16.95;;;8.50;99.90;;;;;;6244584;23;20035;-77
2022/10/03 01:11:18;;;;;;;38.03;16.08;;;8.50;99.90;;;;;;6249825;23;20020;-78
2022/10/03 01:14:26;;;;;;;41.17;17.75;;;8.40;99.90;;;;;;6248288;22;20039;-78
2022/10/03 01:17:46;;;;;;;30.90;17.02;;;8.50;99.90;;;;;;6249157;22;20300;-80
2022/10/03 01:20:50;;;;;;;32.60;18.25;;;8.60;99.90;;;;;;6247023;23;20028;-79
2022/10/03 01:23:55;;;;;;;35.38;18.80;;;8.60;99.90;;;;;;6246332;23;20024;-80
2022/10/03 01:26:56;;;;;;;41.60;19.80;;;8.80;99.90;;;;;;6246710;23;20024;-81
2022/10/03 01:33:33;;;;;;;27.67;16.33;;;9.10;99.90;;;;;;6245580;23;20296;-79
2022/10/03 01:36:31;;;;;;;57.65;23.50;;;9.30;99.90;;;;;;6245359;23;20247;-77
2022/10/03 01:39:33;;;;;;;51.13;26.73;;;9.40;99.90;;;;;;6245849;23;20438;-79
2022/10/03 01:43:01;;;;;;;59.43;26.90;;;9.50;99.90;;;;;;6244677;23;20032;-79
2022/10/03 01:45:58;;;;;;;46.22;20.10;;;9.50;99.90;;;;;;6243715;22;20399;-78
2022/10/03 01:48:51;;;;;;;53.00;23.02;;;9.40;99.90;;;;;;6244043;23;20091;-79
2022/10/03 01:52:00;;;;;;;56.83;23.42;;;9.20;99.90;;;;;;6245331;23;20028;-80
2022/10/03 01:55:02;;;;;;;46.90;21.55;;;9.20;99.90;;;;;;6246950;22;20319;-79
2022/10/03 01:57:59;;;;;;;52.80;20.27;;;9.10;99.90;;;;;;6248181;22;20427;-77
2022/10/03 02:00:57;;;;;;;47.80;20.45;;;9.00;99.90;;;;;;6247109;22;20038;-78
2022/10/03 02:04:14;;;;;;;48.80;21.20;;;8.80;99.90;;;;;;6247942;22;20091;-78
2022/10/03 02:07:20;;;;;;;46.47;20.15;;;8.70;99.90;;;;;;6245118;23;20028;-79
2022/10/03 02:10:19;;;;;;;40.67;20.95;;;8.60;99.90;;;;;;6246324;22;20036;-79
2022/10/03 02:13:12;;;;;;;54.25;23.23;;;8.60;99.90;;;;;;6248794;22;20289;-79
2022/10/03 02:16:13;;;;;;;53.67;21.65;;;8.70;99.90;;;;;;6248686;23;20059;-79
2022/10/03 02:19:28;;;;;;;52.10;22.73;;;8.70;99.90;;;;;;6247941;22;20032;-79
2022/10/03 02:22:34;;;;;;;53.97;23.27;;;8.70;99.90;;;;;;6249228;22;20402;-79
2022/10/03 02:25:49;;;;;;;53.70;24.58;;;8.70;99.90;;;;;;6246730;22;20066;-80
2022/10/03 02:29:02;;;;;;;50.70;25.00;;;8.80;99.90;;;;;;6244573;23;20020;-81
2022/10/03 02:32:07;;;;;;;72.90;28.05;;;8.90;99.90;;;;;;6245055;23;20017;-80
2022/10/03 02:35:03;;;;;;;91.95;32.28;;;9.10;99.90;;;;;;6244982;23;20039;-79
2022/10/03 02:37:50;;;;;;;87.65;31.60;;;9.30;99.90;;;;;;6248472;22;20028;-81
2022/10/03 02:41:03;;;;;;;89.03;31.75;;;9.30;99.90;;;;;;6246086;23;20107;-80
2022/10/03 02:44:02;;;;;;;;;;;9.30;99.90;;;;;;6247800;22;20074;-79
2022/10/03 02:47:22;;;;;;;103.53;33.92;;;9.20;99.90;;;;;;6244516;23;19915;-79
2022/10/03 02:50:21;;;;;;;94.35;33.88;;;9.10;99.90;;;;;;6248716;22;20024;-80
2022/10/03 02:53:48;;;;;;;107.80;36.13;;;9.10;99.90;;;;;;6223651;23;20028;-79
2022/10/03 02:57:06;;;;;;;107.07;36.20;;;9.00;99.90;;;;;;6244719;23;20028;-80
2022/10/03 03:00:00;;;;;;;125.00;37.42;;;8.90;99.90;;;;;;6223681;23;20103;-79
2022/10/03 03:02:50;;;;;;;112.15;35.25;;;8.80;99.90;;;;;;6245038;23;20028;-80
2022/10/03 03:05:58;;;;;;;118.07;35.30;;;8.60;99.90;;;;;;6244416;23;20086;-80
2022/10/03 03:09:10;;;;;;;101.78;35.65;;;8.50;99.90;;;;;;6245204;23;20020;-79
2022/10/03 03:12:18;;;;;;;119.72;35.35;;;8.50;99.90;;;;;;6243935;23;20035;-80
2022/10/03 03:15:31;;;;;;;138.25;39.13;;;8.50;99.90;;;;;;6245982;23;20059;-85
2022/10/03 03:18:35;;;;;;;124.82;37.28;;;8.50;99.90;;;;;;6218096;23;20020;-85
2022/10/03 03:21:31;;;;;;;256.13;43.50;;;8.60;99.90;;;;;;6248167;23;20031;-83
2022/10/03 03:25:01;;;;;;;466.42;52.08;;;8.70;99.90;;;;;;6247429;23;20048;-82
2022/10/03 03:27:54;;;;;;;791.17;65.75;;;8.80;99.90;;;;;;6226916;23;20043;-83
2022/10/03 03:31:28;;;;;;;325.67;46.13;;;8.80;99.90;;;;;;6247819;23;20024;-83
2022/10/03 03:34:18;;;;;;;664.70;53.70;;;8.70;99.90;;;;;;6248544;23;20079;-83
2022/10/03 03:37:13;;;;;;;1016.80;73.78;;;8.70;99.90;;;;;;6247910;23;20111;-83
2022/10/03 03:40:06;;;;;;;543.42;49.05;;;8.70;99.90;;;;;;6247173;23;20103;-83
2022/10/03 03:42:56;;;;;;;824.42;64.57;;;8.70;99.90;;;;;;6247336;23;20043;-84
2022/10/03 03:46:19;;;;;;;605.53;53.67;;;8.80;99.90;;;;;;6249313;22;20020;-86
2022/10/03 03:49:37;;;;;;;390.52;45.50;;;8.80;99.90;;;;;;6125405;23;20022;-85
2022/10/03 03:52:56;;;;;;;546.08;49.35;;;8.80;99.90;;;;;;6247094;23;20034;-83
2022/10/03 03:56:05;;;;;;;537.42;46.50;;;8.80;99.90;;;;;;6247769;23;20028;-83
2022/10/03 03:59:46;;;;;;;617.47;49.67;;;8.80;99.90;;;;;;6248722;23;20028;-83
2022/10/03 04:02:33;;;;;;;401.83;40.10;;;8.80;99.90;;;;;;6186656;23;20072;-84
2022/10/03 04:05:49;;;;;;;437.65;41.40;;;8.80;99.90;;;;;;6247800;23;20261;-84
2022/10/03 04:08:58;;;;;;;281.33;33.90;;;8.80;99.90;;;;;;6247641;23;20024;-84
2022/10/03 04:12:20;;;;;;;337.70;29.40;;;8.90;99.90;;;;;;6247489;23;20027;-84
2022/10/03 04:15:25;;;;;;;215.50;28.98;;;8.90;99.90;;;;;;6247655;23;20035;-84
2022/10/03 04:21:56;;;;;;;396.90;36.38;;;8.90;99.90;;;;;;6246203;23;20024;-84
2022/10/03 04:24:55;;;;;;;253.15;33.92;;;8.90;99.90;;;;;;6247716;23;20024;-84
2022/10/03 04:28:12;;;;;;;278.83;31.70;;;8.90;99.90;;;;;;6227285;23;20028;-84
2022/10/03 04:31:29;;;;;;;214.32;29.88;;;8.80;99.90;;;;;;6248542;22;20103;-85
2022/10/03 04:34:34;;;;;;;155.00;29.02;;;8.90;99.90;;;;;;6243837;23;20035;-85
2022/10/03 04:37:33;;;;;;;167.10;27.25;;;8.90;99.90;;;;;;6250101;22;20042;-85
2022/10/03 04:40:23;;;;;;;296.63;35.10;;;8.90;99.90;;;;;;6244860;23;20028;-85
2022/10/03 04:43:38;;;;;;;346.17;39.58;;;8.90;99.90;;;;;;6247453;23;20320;-85
2022/10/03 04:46:41;;;;;;;194.43;30.98;;;8.90;99.90;;;;;;6247216;23;20056;-84
2022/10/03 04:49:52;;;;;;;257.25;32.78;;;8.80;99.90;;;;;;6247042;23;20031;-84
2022/10/03 04:52:48;;;;;;;206.27;31.23;;;8.70;99.90;;;;;;6247147;23;20024;-85
2022/10/03 04:55:38;;;;;;;194.43;28.20;;;8.70;99.90;;;;;;6249958;22;20028;-84
2022/10/03 04:58:31;;;;;;;164.95;26.52;;;8.70;99.90;;;;;;6246974;23;20074;-84
2022/10/03 05:01:47;;;;;;;180.40;28.77;;;8.70;99.90;;;;;;6247058;22;20038;-84
2022/10/03 05:04:41;;;;;;;158.27;27.92;;;8.70;99.90;;;;;;6245447;23;20019;-84
2022/10/03 05:07:41;;;;;;;136.85;27.77;;;8.80;99.90;;;;;;6248007;22;20308;-84
2022/10/03 05:10:28;;;;;;;151.60;28.40;;;8.90;99.90;;;;;;6247844;23;20024;-85
2022/10/03 05:13:31;;;;;;;177.13;28.17;;;8.90;99.90;;;;;;6247307;23;20290;-84
2022/10/03 05:16:42;;;;;;;179.48;27.70;;;8.90;99.90;;;;;;6246905;23;20016;-83
2022/10/03 05:19:41;;;;;;;179.52;25.35;;;8.80;99.90;;;;;;6248015;22;20094;-83
2022/10/03 05:22:39;;;;;;;170.25;25.88;;;8.70;99.90;;;;;;6246830;23;20024;-84
2022/10/03 05:25:45;;;;;;;153.30;25.60;;;8.70;99.90;;;;;;6247541;22;20024;-84
2022/10/03 05:28:42;;;;;;;149.10;25.35;;;8.70;99.90;;;;;;6246107;23;20024;-84
2022/10/03 05:32:06;;;;;;;139.68;26.38;;;8.70;99.90;;;;;;6246087;23;20100;-84
2022/10/03 05:35:14;;;;;;;127.93;26.40;;;8.70;99.90;;;;;;6247011;23;20023;-84
2022/10/03 05:38:11;;;;;;;144.57;26.90;;;8.70;99.90;;;;;;6245437;23;20059;-84
2022/10/03 05:41:09;;;;;;;136.60;26.67;;;8.70;99.90;;;;;;6243950;23;20032;-83
2022/10/03 05:44:05;;;;;;;119.07;24.67;;;8.70;99.90;;;;;;6246494;23;20038;-84
2022/10/03 05:47:03;;;;;;;100.18;25.33;;;8.70;99.90;;;;;;6248906;22;20451;-84
2022/10/03 05:50:05;;;;;;;106.13;25.75;;;8.70;99.90;;;;;;6245274;23;20028;-85
2022/10/03 05:53:17;;;;;;;100.43;22.85;;;8.70;99.90;;;;;;6243949;23;20028;-84
2022/10/03 05:56:16;;;;;;;93.85;23.30;;;8.70;99.90;;;;;;6247038;22;20024;-84
2022/10/03 06:00:00;;;;;;;92.13;22.95;;;8.70;99.90;;;;;;6246454;23;20055;-85
2022/10/03 06:03:08;;;;;;;101.70;22.88;;;8.70;99.90;;;;;;6210426;23;20038;-85
2022/10/03 06:06:12;;;;;;;77.00;22.67;;;8.70;99.90;;;;;;6250142;22;20027;-85
2022/10/03 06:09:08;;;;;;;89.50;23.95;;;8.70;99.90;;;;;;6245419;23;20023;-84
2022/10/03 06:12:13;;;;;;;92.00;25.38;;;8.70;99.90;;;;;;6247564;23;20024;-84
2022/10/03 06:15:05;;;;;;;94.72;25.75;;;8.60;99.90;;;;;;6248641;23;20046;-85
2022/10/03 06:18:50;;;;;;;96.47;25.85;;;8.70;99.90;;;;;;6245600;23;20032;-85
2022/10/03 06:21:54;;;;;;;105.50;28.13;;;8.80;99.90;;;;;;6164241;23;20025;-84
2022/10/03 06:25:30;;;;;;;86.40;25.77;;;8.90;99.90;;;;;;6246491;23;20103;-84
2022/10/03 06:28:23;;;;;;;89.30;29.27;;;8.90;99.90;;;;;;6240095;23;20030;-85
2022/10/03 06:31:31;;;;;;;98.53;29.83;;;9.00;99.90;;;;;;6249427;22;20032;-84
2022/10/03 06:34:53;;;;;;;97.60;32.70;;;9.10;99.90;;;;;;6244408;23;20386;-84
2022/10/03 06:38:06;;;;;;;103.38;31.45;;;9.20;99.90;;;;;;6244777;23;20023;-84
2022/10/03 06:41:34;;;;;;;110.38;33.97;;;9.30;99.90;;;;;;6227334;23;20099;-83
2022/10/03 06:44:38;;;;;;;112.30;33.90;;;9.30;99.90;;;;;;6243948;23;20035;-82
2022/10/03 06:47:50;;;;;;;109.63;34.85;;;9.40;99.90;;;;;;6245888;23;20032;-82
2022/10/03 06:50:52;;;;;;;110.57;35.47;;;9.40;99.90;;;;;;6244330;23;20031;-82
2022/10/03 06:54:15;;;;;;;113.47;36.50;;;9.40;99.90;;;;;;6247189;22;20024;-85
2022/10/03 06:57:33;;;;;;;115.32;36.88;;;9.50;99.90;;;;;;6245764;23;20024;-82
2022/10/03 07:00:28;;;;;;;112.20;36.72;;;9.40;99.90;;;;;;6248276;23;20065;-83
2022/10/03 07:03:50;;;;;;;109.25;37.17;;;9.40;99.90;;;;;;6248407;23;20031;-82
2022/10/03 07:06:51;;;;;;;108.63;35.80;;;9.40;99.90;;;;;;6250289;22;20342;-83
2022/10/03 07:09:54;;;;;;;127.38;41.15;;;9.40;99.90;;;;;;6249245;22;20334;-83
2022/10/03 07:12:46;;;;;;;138.55;43.35;;;9.50;99.90;;;;;;6249157;23;20074;-82
2022/10/03 07:16:16;;;;;;;139.85;43.72;;;9.60;99.90;;;;;;6247758;23;20415;-83
2022/10/03 07:19:38;;;;;;;120.50;43.10;;;9.80;99.90;;;;;;6249136;22;20028;-83
2022/10/03 07:23:03;;;;;;;151.80;47.10;;;10.10;99.90;;;;;;6251062;22;20427;-83
2022/10/03 07:26:20;;;;;;;128.15;42.88;;;10.20;99.90;;;;;;6248431;22;20024;-83
2022/10/03 07:29:25;;;;;;;136.70;44.88;;;10.30;99.90;;;;;;6251277;22;20020;-83
2022/10/03 07:32:27;;;;;;;127.70;41.38;;;10.30;99.90;;;;;;6249356;22;20351;-83
2022/10/03 07:39:25;;;;;;;102.75;37.47;;;10.40;99.90;;;;;;6248256;23;20475;-83
2022/10/03 07:42:55;;;;;;;92.82;37.53;;;10.40;99.90;;;;;;6246724;23;20416;-82
2022/10/03 07:46:23;;;;;;;93.97;35.85;;;10.40;99.90;;;;;;6249575;22;20020;-84
2022/10/03 07:49:40;;;;;;;96.15;35.17;;;10.40;99.90;;;;;;6246454;23;20074;-84
2022/10/03 07:52:42;;;;;;;80.57;32.92;;;10.30;99.90;;;;;;6246243;23;20024;-84
2022/10/03 07:55:43;;;;;;;76.40;32.85;;;10.30;99.90;;;;;;6248093;23;20021;-84
2022/10/03 07:58:30;;;;;;;84.28;32.25;;;10.30;99.90;;;;;;6247670;23;20131;-84
2022/10/03 08:01:41;;;;;;;73.15;31.95;;;10.40;99.90;;;;;;6248581;23;20093;-85
2022/10/03 08:04:54;;;;;;;71.03;30.42;;;10.40;99.90;;;;;;6248510;22;20034;-85
2022/10/03 08:08:02;;;;;;;70.45;31.88;;;10.40;99.90;;;;;;6248283;22;20292;-82
2022/10/03 08:11:28;;;;;;;60.67;28.40;;;10.50;99.90;;;;;;6247422;23;20048;-81
2022/10/03 08:14:28;;;;;;;57.90;25.65;;;10.70;99.90;;;;;;6247312;23;20032;-82
2022/10/03 08:17:53;;;;;;;49.33;26.33;;;10.70;99.90;;;;;;6244286;23;20353;-82
2022/10/03 08:20:46;;;;;;;49.05;24.17;;;10.80;99.90;;;;;;6246899;23;20510;-82
2022/10/03 08:23:47;;;;;;;40.72;21.10;;;10.90;99.90;;;;;;6248727;23;20032;-83
2022/10/03 08:26:43;;;;;;;40.80;21.20;;;10.90;99.90;;;;;;6249023;22;20111;-82
2022/10/03 08:29:46;;;;;;;34.80;19.63;;;10.90;99.90;;;;;;6250055;22;20028;-82
2022/10/03 08:32:44;;;;;;;41.50;19.85;;;10.90;99.90;;;;;;6245717;23;20024;-82
2022/10/03 08:35:52;;;;;;;33.05;19.17;;;10.90;99.90;;;;;;6247638;23;20038;-82
2022/10/03 08:38:53;;;;;;;37.60;19.30;;;11.10;99.90;;;;;;6246717;23;20028;-82
2022/10/03 08:41:59;;;;;;;33.03;19.30;;;11.20;99.90;;;;;;6245136;23;20028;-82
2022/10/03 08:45:20;;;;;;;29.67;18.67;;;11.40;99.90;;;;;;6248233;22;20035;-82
2022/10/03 08:48:39;;;;;;;32.00;17.20;;;11.30;99.90;;;;;;6247505;23;20099;-83
2022/10/03 08:52:00;;;;;;;29.25;16.73;;;11.20;99.90;;;;;;6245699;23;20024;-83
2022/10/03 08:55:00;;;;;;;22.70;15.27;;;11.30;99.90;;;;;;6247504;22;20031;-83
2022/10/03 08:58:22;;;;;;;24.60;14.95;;;11.50;99.90;;;;;;6246351;23;20528;-83
2022/10/03 09:01:15;;;;;;;32.25;17.05;;;11.40;99.90;;;;;;6245496;23;20031;-83
2022/10/03 09:04:29;;;;;;;40.53;20.48;;;11.30;99.90;;;;;;6247357;23;20028;-82
2022/10/03 09:07:34;;;;;;;40.90;18.42;;;11.20;99.90;;;;;;6230550;23;20099;-82
2022/10/03 09:10:59;;;;;;;27.55;17.67;;;10.90;99.90;;;;;;6246686;23;20044;-82
2022/10/03 09:14:04;;;;;;;34.22;20.02;;;11.00;99.90;;;;;;6247064;23;20035;-82
2022/10/03 09:16:55;;;;;;;34.13;19.33;;;11.20;99.90;;;;;;6247083;23;20020;-82
2022/10/03 09:20:15;;;;;;;31.02;17.33;;;11.20;99.90;;;;;;6249533;22;20024;-83
2022/10/03 09:23:27;;;;;;;34.35;18.02;;;11.20;99.90;;;;;;6249453;22;20020;-82
2022/10/03 09:26:17;;;;;;;34.72;20.15;;;11.10;99.90;;;;;;6249019;22;20314;-82
2022/10/03 09:29:19;;;;;;;33.72;17.73;;;11.30;99.90;;;;;;6247077;23;20304;-83
2022/10/03 09:32:29;;;;;;;32.92;17.52;;;11.60;99.90;;;;;;6246721;23;20031;-83
2022/10/03 09:35:40;;;;;;;26.13;17.50;;;11.80;99.90;;;;;;6249952;22;20300;-83
2022/10/03 09:38:54;;;;;;;25.02;15.55;;;12.10;99.90;;;;;;6247401;23;20123;-83
2022/10/03 09:42:42;;;;;;;31.23;17.63;;;12.20;1.00;;;;;;6246804;23;20062;-82
2022/10/03 09:46:01;;;;;;;28.30;17.80;;;12.00;99.90;;;;;;6188149;23;20121;-86
2022/10/03 09:49:25;;;;;;;31.60;16.02;;;12.20;99.90;;;;;;6251140;22;20024;-84
2022/10/03 09:52:23;;;;;;;28.75;16.13;;;12.40;99.90;;;;;;6247566;22;20425;-87
2022/10/03 09:55:35;;;;;;;28.88;16.83;;;12.90;1.00;;;;;;6244276;23;20024;-86
2022/10/03 09:58:44;;;;;;;26.83;13.02;;;14.00;99.90;;;;;;6247219;23;20034;-87
2022/10/03 10:01:40;;;;;;;19.33;8.45;;;16.00;1.00;;;;;;6246812;23;20031;-88
2022/10/03 10:04:49;;;;;;;22.40;8.80;;;17.60;99.90;;;;;;6247886;23;20080;-87
2022/10/03 10:08:15;;;;;;;14.75;8.23;;;18.60;99.90;;;;;;6248412;22;20034;-89
2022/10/03 10:11:43;;;;;;;14.50;8.60;;;18.80;99.90;;;;;;6245753;23;20091;-87
2022/10/03 10:14:42;;;;;;;15.23;8.85;;;18.50;99.90;;;;;;6249760;22;20063;-87
2022/10/03 10:17:47;;;;;;;15.05;7.07;;;17.60;99.90;;;;;;6247521;23;20035;-87
2022/10/03 10:20:53;;;;;;;14.52;6.43;;;17.30;99.90;;;;;;6253915;23;20052;-89
2022/10/03 10:24:05;;;;;;;13.18;6.50;;;17.90;99.90;;;;;;6255185;23;20028;-88
2022/10/03 10:27:20;;;;;;;16.25;7.47;;;18.40;99.90;;;;;;6258584;23;20028;-91
2022/10/03 10:30:45;;;;;;;11.95;5.72;;;19.50;99.90;;;;;;6250281;23;20103;-86
2022/10/03 10:34:14;;;;;;;11.13;5.80;;;18.90;99.90;;;;;;6278304;22;20023;-90
2022/10/03 10:37:32;;;;;;;9.02;5.35;;;17.70;99.90;;;;;;6231844;23;20142;-87
2022/10/03 10:41:02;;;;;;;9.70;5.43;;;19.90;99.90;;;;;;6249084;23;20328;-90
2022/10/03 10:44:08;;;;;;;9.80;4.00;;;22.50;99.90;;;;;;6251942;22;20090;-91
2022/10/03 10:47:23;;;;;;;6.60;3.85;;;24.30;77.80;;;;;;6246949;23;20032;-90
2022/10/03 10:50:35;;;;;;;9.93;4.82;;;23.60;33.10;;;;;;6225526;23;20027;-85
2022/10/03 10:54:08;;;;;;;7.97;4.53;;;21.00;34.10;;;;;;6246712;23;20095;-84
2022/10/03 10:57:06;;;;;;;10.45;5.00;;;21.20;41.30;;;;;;6245553;23;20450;-84
2022/10/03 11:03:14;;;;;;;8.95;3.92;;;19.70;27.20;;;;;;6165747;23;20047;-83
2022/10/03 11:06:45;;;;;;;8.38;3.80;;;21.10;34.00;;;;;;6156673;23;20056;-82
2022/10/03 11:09:50;;;;;;;10.30;3.85;;;23.40;22.00;;;;;;6144079;23;20033;-83
2022/10/03 11:13:16;;;;;;;8.90;3.92;;;23.60;8.30;;;;;;6198795;23;20025;-83
2022/10/03 11:16:15;;;;;;;8.75;3.92;;;23.60;9.30;;;;;;6178618;23;20021;-83
2022/10/03 11:19:18;;;;;;;11.40;4.13;;;22.60;5.20;;;;;;6198543;23;20009;-82
2022/10/03 11:22:28;;;;;;;7.43;3.42;;;21.90;4.50;;;;;;6201196;23;20025;-81
2022/10/03 11:25:46;;;;;;;10.27;4.20;;;20.70;12.80;;;;;;6179833;23;20025;-83
2022/10/03 11:28:51;;;;;;;10.43;4.07;;;19.80;2.50;;;;;;6208260;23;20029;-82
2022/10/03 11:32:04;;;;;;;10.35;4.07;;;19.20;6.10;;;;;;6208775;23;20044;-83
2022/10/03 11:35:13;;;;;;;8.98;4.20;;;18.70;24.60;;;;;;6209191;23;20036;-83
2022/10/03 11:38:03;;;;;;;10.82;3.63;;;17.90;27.80;;;;;;6178378;23;20085;-84
2022/10/03 11:40:59;;;;;;;9.88;4.43;;;17.20;44.80;;;;;;6200666;23;20057;-83
2022/10/03 11:44:21;;;;;;;9.55;3.97;;;16.80;63.50;;;;;;6179875;23;20025;-84
2022/10/03 11:47:11;;;;;;;10.68;4.03;;;16.80;84.70;;;;;;6180963;23;20025;-84
2022/10/03 11:50:24;;;;;;;8.25;3.90;;;16.80;58.70;;;;;;6202067;23;20082;-85
2022/10/03 11:53:27;;;;;;;12.10;3.88;;;16.60;38.60;;;;;;6175420;23;20025;-84
2022/10/03 11:56:20;;;;;;;9.48;4.05;;;16.80;46.70;;;;;;6191548;23;20127;-84
2022/10/03 11:59:27;;;;;;;10.55;3.53;;;17.00;79.40;;;;;;6175445;23;20079;-86
2022/10/03 12:02:38;;;;;;;9.77;4.38;;;17.00;73.50;;;;;;6131191;23;20057;-85
2022/10/03 12:05:34;;;;;;;8.98;4.10;;;17.40;76.80;;;;;;6131047;23;20032;-84
2022/10/03 12:08:55;;;;;;;15.05;5.18;;;17.70;53.30;;;;;;6111254;23;20061;-86
2022/10/03 12:11:57;;;;;;;8.43;4.05;;;17.80;61.30;;;;;;6105937;23;20057;-84
2022/10/03 12:14:51;;;;;;;13.65;4.55;;;17.90;78.90;;;;;;6123216;23;20070;-82
2022/10/03 12:17:45;;;;;;;8.63;4.20;;;18.10;80.50;;;;;;6124457;23;20022;-84
2022/10/03 12:20:52;;;;;;;10.05;4.00;;;19.00;79.80;;;;;;6124950;23;20438;-85
2022/10/03 12:24:02;;;;;;;6.18;3.53;;;21.20;47.70;;;;;;6090643;23;20030;-82
2022/10/03 12:27:34;;;;;;;8.40;3.53;;;22.00;22.30;;;;;;6123848;23;20049;-84
2022/10/03 12:30:21;;;;;;;11.38;4.18;;;22.20;16.40;;;;;;6124355;23;20061;-83
2022/10/03 12:33:26;;;;;;;8.55;3.65;;;23.00;15.10;;;;;;6141430;23;20115;-81
2022/10/03 12:36:52;;;;;;;7.70;3.53;;;24.20;11.10;;;;;;6154520;23;20053;-83
2022/10/03 12:39:51;;;;;;;12.07;4.00;;;23.60;2.30;;;;;;6096371;23;20034;-82
2022/10/03 12:42:44;;;;;;;12.73;4.35;;;22.90;4.30;;;;;;6176093;23;20021;-82
2022/10/03 12:45:49;;;;;;;12.88;5.15;;;21.70;3.60;;;;;;6156849;23;20110;-83
2022/10/03 12:48:42;;;;;;;8.82;4.80;;;20.20;5.80;;;;;;6154529;23;20033;-83
2022/10/03 12:51:57;;;;;;;10.70;5.35;;;19.60;10.10;;;;;;6154386;23;20026;-82
2022/10/03 12:54:57;;;;;;;10.77;5.05;;;18.60;10.50;;;;;;6154232;23;20077;-81
2022/10/03 12:57:57;;;;;;;9.27;5.43;;;18.20;23.50;;;;;;6153529;23;20053;-82
2022/10/03 13:01:08;;;;;;;11.07;5.13;;;18.00;35.20;;;;;;6155275;23;20022;-83
2022/10/03 13:04:10;;;;;;;14.15;4.75;;;18.00;56.20;;;;;;6154577;23;20021;-82
2022/10/03 13:07:14;;;;;;;8.18;4.15;;;17.90;43.30;;;;;;6154716;23;20025;-82
2022/10/03 13:10:19;;;;;;;17.05;4.97;;;17.60;58.20;;;;;;6155394;23;20452;-82
2022/10/03 13:13:32;;;;;;;9.48;4.50;;;17.20;75.20;;;;;;6154270;23;20025;-83
2022/10/03 13:16:22;;;;;;;10.30;4.78;;;16.90;95.20;;;;;;6154505;23;20074;-81
2022/10/03 13:19:17;;;;;;;11.02;4.85;;;16.50;99.90;;;;;;6156448;23;20086;-83
2022/10/03 13:22:29;;;;;;;8.48;4.53;;;16.10;99.90;;;;;;6154859;23;20160;-82
2022/10/03 13:25:44;;;;;;;11.98;4.75;;;15.80;99.90;;;;;;6157696;23;20131;-82
2022/10/03 13:29:13;;;;;;;9.82;4.50;;;15.70;99.90;;;;;;6156650;23;20124;-83
2022/10/03 13:32:15;;;;;;;8.88;4.22;;;15.70;99.90;;;;;;6153946;23;20115;-83
2022/10/03 13:38:35;;;;;;;6.45;3.58;;;16.70;99.90;;;;;;6155707;23;20036;-81
2022/10/03 13:41:41;;;;;;;8.60;4.20;;;17.00;85.30;;;;;;6154129;23;20437;-82
2022/10/03 13:44:53;;;;;;;12.50;4.45;;;17.00;71.50;;;;;;6154276;23;20026;-81
2022/10/03 13:48:01;;;;;;;10.10;3.35;;;17.40;64.50;;;;;;6155216;23;20311;-81
2022/10/03 13:51:01;;;;;;;9.10;3.95;;;17.40;49.80;;;;;;6155481;23;20025;-81
2022/10/03 13:54:05;;;;;;;7.15;3.58;;;17.50;39.70;;;;;;6154898;23;20096;-82
2022/10/03 13:57:06;;;;;;;8.40;3.65;;;17.80;33.80;;;;;;6154609;23;20034;-83
2022/10/03 14:00:07;;;;;;;8.90;3.85;;;18.30;41.20;;;;;;6156319;23;20480;-82
2022/10/03 14:03:12;;;;;;;7.22;3.30;;;18.20;28.80;;;;;;6154424;23;20061;-82
2022/10/03 14:06:05;;;;;;;10.35;3.40;;;18.40;14.80;;;;;;6152844;23;20025;-82
2022/10/03 14:09:23;;;;;;;8.88;4.00;;;18.50;21.40;;;;;;6154038;23;20032;-82
2022/10/03 14:12:19;;;;;;;9.23;3.47;;;18.50;21.30;;;;;;6154904;23;20057;-84
2022/10/03 14:15:43;;;;;;;9.45;3.50;;;18.20;9.50;;;;;;6153573;23;20032;-83
2022/10/03 14:18:57;;;;;;;11.80;3.38;;;18.60;17.30;;;;;;6152657;23;20036;-83
2022/10/03 14:21:59;;;;;;;7.90;3.10;;;20.00;13.30;;;;;;6155054;23;20025;-83
2022/10/03 14:24:51;;;;;;;9.13;3.30;;;21.90;1.00;;;;;;6153686;23;20104;-83
2022/10/03 14:27:49;;;;;;;6.50;2.95;;;23.10;1.00;;;;;;6154662;23;20104;-83
2022/10/03 14:31:15;;;;;;;8.43;3.03;;;24.30;1.00;;;;;;6154399;23;20022;-83
2022/10/03 14:34:28;;;;;;;9.20;3.10;;;23.80;1.00;;;;;;6067675;23;20027;-83
2022/10/03 14:37:41;;;;;;;7.68;2.85;;;24.30;1.00;;;;;;6066064;23;20031;-83
2022/10/03 14:40:36;;;;;;;6.47;2.30;;;24.70;1.00;;;;;;6156238;23;20472;-83
2022/10/03 14:43:36;;;;;;;6.60;2.47;;;25.20;1.00;;;;;;6154874;23;20053;-83
2022/10/03 14:46:28;;;;;;;7.05;2.53;;;25.20;1.00;;;;;;6155862;23;20022;-83
2022/10/03 14:49:24;;;;;;;6.40;2.53;;;25.30;1.00;;;;;;6155014;23;20022;-84
2022/10/03 14:52:37;;;;;;;7.95;2.80;;;24.40;1.00;;;;;;6155414;23;20108;-84
2022/10/03 14:55:28;;;;;;;8.00;3.17;;;23.00;1.00;;;;;;6155691;23;20444;-83
2022/10/03 14:58:21;;;;;;;7.65;2.97;;;21.80;1.00;;;;;;6155567;23;20025;-84
2022/10/03 15:01:18;;;;;;;5.63;2.60;;;20.70;1.00;;;;;;6156215;23;20026;-82
2022/10/03 15:04:15;;;;;;;11.88;3.63;;;19.50;1.00;;;;;;6155246;23;20104;-84
2022/10/03 15:07:05;;;;;;;9.82;3.08;;;18.50;1.00;;;;;;6156419;23;20309;-83
2022/10/03 15:09:56;;;;;;;9.75;3.38;;;17.40;1.00;;;;;;6155090;23;20057;-83
2022/10/03 15:12:52;;;;;;;9.55;3.40;;;16.50;1.00;;;;;;6157399;23;20044;-83
2022/10/03 15:15:42;;;;;;;14.00;3.72;;;15.90;2.70;;;;;;6155051;23;20104;-82
2022/10/03 15:18:30;;;;;;;8.55;3.50;;;15.50;17.60;;;;;;6155427;23;20036;-82
2022/10/03 15:21:18;;;;;;;9.48;3.30;;;15.20;29.00;;;;;;6157142;23;20025;-83
2022/10/03 15:24:11;;;;;;;8.73;3.60;;;15.20;50.80;;;;;;6156297;23;20029;-82
2022/10/03 15:27:07;;;;;;;7.93;3.17;;;15.80;60.10;;;;;;6153761;23;20049;-81
2022/10/03 15:29:59;;;;;;;8.63;3.22;;;16.70;36.50;;;;;;6153946;23;20030;-83
2022/10/03 15:32:48;;;;;;;7.75;3.33;;;17.50;16.30;;;;;;6157123;23;20026;-85
2022/10/03 15:35:40;;;;;;;19.25;3.20;;;17.90;7.00;;;;;;6158294;23;20022;-84
2022/10/03 15:38:42;;;;;;;10.25;2.95;;;17.30;1.00;;;;;;6155666;23;20104;-84
2022/10/03 15:41:35;;;;;;;7.28;3.25;;;16.50;10.20;;;;;;6156693;23;20025;-85
2022/10/03 15:44:32;;;;;;;8.80;2.80;;;16.40;15.00;;;;;;6156351;23;20095;-83
2022/10/03 15:47:28;;;;;;;5.03;2.75;;;16.80;12.70;;;;;;6154134;23;20130;-83
2022/10/03 15:50:24;;;;;;;6.30;2.67;;;17.30;12.30;;;;;;6157131;23;20109;-84
2022/10/03 15:53:34;;;;;;;8.98;2.78;;;17.80;8.90;;;;;;6157308;23;20040;-83
2022/10/03 15:56:32;;;;;;;7.35;2.83;;;18.00;1.00;;;;;;6157210;23;20025;-83
2022/10/03 15:59:28;;;;;;;8.90;3.65;;;17.70;1.00;;;;;;6155934;23;20029;-84
2022/10/03 16:02:20;;;;;;;10.90;3.30;;;17.70;1.00;;;;;;6155330;23;20104;-83
2022/10/03 16:05:19;;;;;;;12.60;3.23;;;17.60;1.00;;;;;;6157077;23;20093;-83
2022/10/03 16:08:14;;;;;;;10.50;3.50;;;17.20;1.00;;;;;;6155452;23;20021;-83
2022/10/03 16:11:26;;;;;;;8.40;3.30;;;16.90;1.00;;;;;;6158080;23;20033;-82
2022/10/03 16:14:40;;;;;;;14.65;3.60;;;16.50;2.20;;;;;;6154303;23;20314;-81